sensor_id;sensor_type;location;lat;lon;timestamp;temperature;humidity
32139;DHT22;18644;48.700;9.210;2024-01-30T00:00:08;4.10;59.70
32139;DHT22;18644;48.700;9.210;2024-01-30T00:02:36;4.10;59.70
32139;DHT22;18644;48.700;9.210;2024-01-30T00:05:03;4.10;59.70
32139;DHT22;18644;48.700;9.210;2024-01-30T00:07:30;4.10;59.70
32139;DHT22;18644;48.700;9.210;2024-01-30T00:09:57;4.10;59.60
32139;DHT22;18644;48.700;9.210;2024-01-30T00:12:29;4.10;59.60
32139;DHT22;18644;48.700;9.210;2024-01-30T00:15:00;4.10;59.60
32139;DHT22;18644;48.700;9.210;2024-01-30T00:17:35;4.10;59.60
32139;DHT22;18644;48.700;9.210;2024-01-30T00:20:03;4.10;59.50
32139;DHT22;18644;48.700;9.210;2024-01-30T00:22:31;4.00;59.50
32139;DHT22;18644;48.700;9.210;2024-01-30T00:25:00;4.00;59.50
32139;DHT22;18644;48.700;9.210;2024-01-30T00:27:28;4.00;59.60
32139;DHT22;18644;48.700;9.210;2024-01-30T00:29:55;4.00;59.80
32139;DHT22;18644;48.700;9.210;2024-01-30T00:32:22;4.00;60.00
32139;DHT22;18644;48.700;9.210;2024-01-30T00:34:49;4.00;60.00
32139;DHT22;18644;48.700;9.210;2024-01-30T00:37:16;4.00;60.00
32139;DHT22;18644;48.700;9.210;2024-01-30T00:39:43;4.00;60.00
32139;DHT22;18644;48.700;9.210;2024-01-30T00:42:10;3.90;59.90
32139;DHT22;18644;48.700;9.210;2024-01-30T00:44:38;3.90;59.90
32139;DHT22;18644;48.700;9.210;2024-01-30T00:47:05;3.90;59.90
32139;DHT22;18644;48.700;9.210;2024-01-30T00:49:32;3.90;60.00
32139;DHT22;18644;48.700;9.210;2024-01-30T00:52:00;3.90;60.10
32139;DHT22;18644;48.700;9.210;2024-01-30T00:54:27;3.90;60.20
32139;DHT22;18644;48.700;9.210;2024-01-30T00:56:54;3.90;60.30
32139;DHT22;18644;48.700;9.210;2024-01-30T00:59:21;3.90;60.40
32139;DHT22;18644;48.700;9.210;2024-01-30T01:01:49;3.90;60.50
32139;DHT22;18644;48.700;9.210;2024-01-30T01:04:16;3.90;60.40
32139;DHT22;18644;48.700;9.210;2024-01-30T01:06:44;3.90;60.30
32139;DHT22;18644;48.700;9.210;2024-01-30T01:09:11;3.90;60.40
32139;DHT22;18644;48.700;9.210;2024-01-30T01:11:38;3.90;60.50
32139;DHT22;18644;48.700;9.210;2024-01-30T01:14:05;3.90;60.50
32139;DHT22;18644;48.700;9.210;2024-01-30T01:16:32;3.90;60.80
32139;DHT22;18644;48.700;9.210;2024-01-30T01:19:01;3.90;60.90
32139;DHT22;18644;48.700;9.210;2024-01-30T01:21:28;3.90;61.00
32139;DHT22;18644;48.700;9.210;2024-01-30T01:23:55;3.90;60.90
32139;DHT22;18644;48.700;9.210;2024-01-30T01:26:22;3.90;60.80
32139;DHT22;18644;48.700;9.210;2024-01-30T01:28:49;3.90;60.70
32139;DHT22;18644;48.700;9.210;2024-01-30T01:31:16;3.90;60.70
32139;DHT22;18644;48.700;9.210;2024-01-30T01:33:43;3.90;60.80
32139;DHT22;18644;48.700;9.210;2024-01-30T01:36:11;3.90;60.90
32139;DHT22;18644;48.700;9.210;2024-01-30T01:38:40;3.90;60.90
32139;DHT22;18644;48.700;9.210;2024-01-30T01:41:06;3.90;60.90
32139;DHT22;18644;48.700;9.210;2024-01-30T01:43:33;3.90;60.90
32139;DHT22;18644;48.700;9.210;2024-01-30T01:46:00;3.90;60.90
32139;DHT22;18644;48.700;9.210;2024-01-30T01:48:27;3.90;60.90
32139;DHT22;18644;48.700;9.210;2024-01-30T01:50:54;3.90;60.90
32139;DHT22;18644;48.700;9.210;2024-01-30T01:53:23;3.80;60.80
32139;DHT22;18644;48.700;9.210;2024-01-30T01:55:50;3.80;60.90
32139;DHT22;18644;48.700;9.210;2024-01-30T01:58:19;3.80;60.90
32139;DHT22;18644;48.700;9.210;2024-01-30T02:00:49;3.80;61.00
32139;DHT22;18644;48.700;9.210;2024-01-30T02:03:18;3.80;61.00
32139;DHT22;18644;48.700;9.210;2024-01-30T02:05:46;3.80;61.00
32139;DHT22;18644;48.700;9.210;2024-01-30T02:08:14;3.80;61.20
32139;DHT22;18644;48.700;9.210;2024-01-30T02:10:43;3.80;61.20
32139;DHT22;18644;48.700;9.210;2024-01-30T02:13:09;3.80;61.40
32139;DHT22;18644;48.700;9.210;2024-01-30T02:15:36;3.80;61.40
32139;DHT22;18644;48.700;9.210;2024-01-30T02:18:04;3.80;61.30
32139;DHT22;18644;48.700;9.210;2024-01-30T02:20:31;3.70;61.10
32139;DHT22;18644;48.700;9.210;2024-01-30T02:23:03;3.70;60.90
32139;DHT22;18644;48.700;9.210;2024-01-30T02:25:31;3.80;60.80
32139;DHT22;18644;48.700;9.210;2024-01-30T02:27:59;3.70;60.80
32139;DHT22;18644;48.700;9.210;2024-01-30T02:30:26;3.70;60.90
32139;DHT22;18644;48.700;9.210;2024-01-30T02:32:53;3.70;60.90
32139;DHT22;18644;48.700;9.210;2024-01-30T02:35:20;3.70;60.90
32139;DHT22;18644;48.700;9.210;2024-01-30T02:37:47;3.70;61.00
32139;DHT22;18644;48.700;9.210;2024-01-30T02:40:15;3.60;61.10
32139;DHT22;18644;48.700;9.210;2024-01-30T02:42:42;3.60;61.10
32139;DHT22;18644;48.700;9.210;2024-01-30T02:45:10;3.60;61.20
32139;DHT22;18644;48.700;9.210;2024-01-30T02:47:38;3.60;61.40
32139;DHT22;18644;48.700;9.210;2024-01-30T02:50:06;3.60;61.40
32139;DHT22;18644;48.700;9.210;2024-01-30T02:52:33;3.50;61.30
32139;DHT22;18644;48.700;9.210;2024-01-30T02:55:00;3.50;61.20
32139;DHT22;18644;48.700;9.210;2024-01-30T02:57:29;3.50;61.20
32139;DHT22;18644;48.700;9.210;2024-01-30T02:59:56;3.50;61.30
32139;DHT22;18644;48.700;9.210;2024-01-30T03:02:23;3.50;61.20
32139;DHT22;18644;48.700;9.210;2024-01-30T03:04:50;3.50;61.20
32139;DHT22;18644;48.700;9.210;2024-01-30T03:07:17;3.50;61.10
32139;DHT22;18644;48.700;9.210;2024-01-30T03:09:44;3.40;61.10
32139;DHT22;18644;48.700;9.210;2024-01-30T03:12:11;3.40;61.10
32139;DHT22;18644;48.700;9.210;2024-01-30T03:14:39;3.40;61.20
32139;DHT22;18644;48.700;9.210;2024-01-30T03:17:06;3.30;61.20
32139;DHT22;18644;48.700;9.210;2024-01-30T03:19:33;3.40;61.30
32139;DHT22;18644;48.700;9.210;2024-01-30T03:22:00;3.30;61.40
32139;DHT22;18644;48.700;9.210;2024-01-30T03:24:27;3.30;61.40
32139;DHT22;18644;48.700;9.210;2024-01-30T03:26:54;3.30;61.40
32139;DHT22;18644;48.700;9.210;2024-01-30T03:29:21;3.30;61.40
32139;DHT22;18644;48.700;9.210;2024-01-30T03:31:49;3.20;61.50
32139;DHT22;18644;48.700;9.210;2024-01-30T03:34:16;3.20;61.60
32139;DHT22;18644;48.700;9.210;2024-01-30T03:36:43;3.20;61.70
32139;DHT22;18644;48.700;9.210;2024-01-30T03:39:09;3.20;61.70
32139;DHT22;18644;48.700;9.210;2024-01-30T03:41:36;3.20;61.70
32139;DHT22;18644;48.700;9.210;2024-01-30T03:44:03;3.20;61.90
32139;DHT22;18644;48.700;9.210;2024-01-30T03:46:30;3.20;62.00
32139;DHT22;18644;48.700;9.210;2024-01-30T03:48:58;3.20;62.20
32139;DHT22;18644;48.700;9.210;2024-01-30T03:51:25;3.20;62.20
32139;DHT22;18644;48.700;9.210;2024-01-30T03:53:52;3.20;62.20
32139;DHT22;18644;48.700;9.210;2024-01-30T03:56:19;3.10;62.10
32139;DHT22;18644;48.700;9.210;2024-01-30T03:58:46;3.10;62.10
32139;DHT22;18644;48.700;9.210;2024-01-30T04:01:13;3.10;62.00
32139;DHT22;18644;48.700;9.210;2024-01-30T04:03:41;3.10;61.90
32139;DHT22;18644;48.700;9.210;2024-01-30T04:06:10;3.10;61.90
32139;DHT22;18644;48.700;9.210;2024-01-30T04:08:37;3.10;62.00
32139;DHT22;18644;48.700;9.210;2024-01-30T04:11:05;3.00;61.90
32139;DHT22;18644;48.700;9.210;2024-01-30T04:13:32;3.00;62.00
32139;DHT22;18644;48.700;9.210;2024-01-30T04:15:59;3.00;62.10
32139;DHT22;18644;48.700;9.210;2024-01-30T04:18:27;3.00;62.30
32139;DHT22;18644;48.700;9.210;2024-01-30T04:20:54;3.00;62.40
32139;DHT22;18644;48.700;9.210;2024-01-30T04:23:22;3.00;62.40
32139;DHT22;18644;48.700;9.210;2024-01-30T04:25:49;3.00;62.50
32139;DHT22;18644;48.700;9.210;2024-01-30T04:28:16;3.00;62.50
32139;DHT22;18644;48.700;9.210;2024-01-30T04:30:43;3.00;62.50
32139;DHT22;18644;48.700;9.210;2024-01-30T04:33:10;3.00;62.50
32139;DHT22;18644;48.700;9.210;2024-01-30T04:35:37;3.00;62.50
32139;DHT22;18644;48.700;9.210;2024-01-30T04:38:04;3.00;62.50
32139;DHT22;18644;48.700;9.210;2024-01-30T04:40:33;3.00;62.30
32139;DHT22;18644;48.700;9.210;2024-01-30T04:42:59;2.90;62.30
32139;DHT22;18644;48.700;9.210;2024-01-30T04:45:27;2.90;62.30
32139;DHT22;18644;48.700;9.210;2024-01-30T04:47:53;2.90;62.30
32139;DHT22;18644;48.700;9.210;2024-01-30T04:50:20;2.90;62.40
32139;DHT22;18644;48.700;9.210;2024-01-30T04:52:47;2.90;62.40
32139;DHT22;18644;48.700;9.210;2024-01-30T04:55:14;2.80;62.40
32139;DHT22;18644;48.700;9.210;2024-01-30T04:57:43;2.80;62.50
32139;DHT22;18644;48.700;9.210;2024-01-30T05:00:10;2.80;62.50
32139;DHT22;18644;48.700;9.210;2024-01-30T05:02:38;2.80;62.60
32139;DHT22;18644;48.700;9.210;2024-01-30T05:05:05;2.80;62.70
32139;DHT22;18644;48.700;9.210;2024-01-30T05:07:33;2.80;62.70
32139;DHT22;18644;48.700;9.210;2024-01-30T05:10:00;2.80;62.80
32139;DHT22;18644;48.700;9.210;2024-01-30T05:12:27;2.80;62.70
32139;DHT22;18644;48.700;9.210;2024-01-30T05:14:55;2.80;62.70
32139;DHT22;18644;48.700;9.210;2024-01-30T05:17:22;2.80;63.50
32139;DHT22;18644;48.700;9.210;2024-01-30T05:19:49;2.70;62.70
32139;DHT22;18644;48.700;9.210;2024-01-30T05:22:16;2.70;62.80
32139;DHT22;18644;48.700;9.210;2024-01-30T05:24:44;2.70;62.80
32139;DHT22;18644;48.700;9.210;2024-01-30T05:27:11;2.70;62.80
32139;DHT22;18644;48.700;9.210;2024-01-30T05:29:38;2.70;62.80
32139;DHT22;18644;48.700;9.210;2024-01-30T05:32:07;2.70;62.80
32139;DHT22;18644;48.700;9.210;2024-01-30T05:34:35;2.70;62.80
32139;DHT22;18644;48.700;9.210;2024-01-30T05:37:02;2.70;62.80
32139;DHT22;18644;48.700;9.210;2024-01-30T05:39:30;2.70;62.90
32139;DHT22;18644;48.700;9.210;2024-01-30T05:41:58;2.70;62.90
32139;DHT22;18644;48.700;9.210;2024-01-30T05:44:25;2.70;62.90
32139;DHT22;18644;48.700;9.210;2024-01-30T05:46:52;2.60;62.90
32139;DHT22;18644;48.700;9.210;2024-01-30T05:49:21;2.60;62.80
32139;DHT22;18644;48.700;9.210;2024-01-30T05:51:48;2.60;62.80
32139;DHT22;18644;48.700;9.210;2024-01-30T05:54:15;2.60;62.90
32139;DHT22;18644;48.700;9.210;2024-01-30T05:56:42;2.60;62.90
32139;DHT22;18644;48.700;9.210;2024-01-30T05:59:09;2.60;62.90
32139;DHT22;18644;48.700;9.210;2024-01-30T06:01:36;2.60;62.90
32139;DHT22;18644;48.700;9.210;2024-01-30T06:04:03;2.60;63.00
32139;DHT22;18644;48.700;9.210;2024-01-30T06:06:32;2.60;63.00
32139;DHT22;18644;48.700;9.210;2024-01-30T06:08:58;2.60;63.10
32139;DHT22;18644;48.700;9.210;2024-01-30T06:11:25;2.50;63.00
32139;DHT22;18644;48.700;9.210;2024-01-30T06:13:52;2.60;63.10
32139;DHT22;18644;48.700;9.210;2024-01-30T06:16:19;2.60;63.10
32139;DHT22;18644;48.700;9.210;2024-01-30T06:18:47;2.50;63.10
32139;DHT22;18644;48.700;9.210;2024-01-30T06:21:14;2.50;63.10
32139;DHT22;18644;48.700;9.210;2024-01-30T06:23:42;2.50;63.20
32139;DHT22;18644;48.700;9.210;2024-01-30T06:26:09;2.50;63.20
32139;DHT22;18644;48.700;9.210;2024-01-30T06:28:36;2.50;63.20
32139;DHT22;18644;48.700;9.210;2024-01-30T06:31:03;2.50;63.20
32139;DHT22;18644;48.700;9.210;2024-01-30T06:33:30;2.50;63.20
32139;DHT22;18644;48.700;9.210;2024-01-30T06:35:57;2.50;63.20
32139;DHT22;18644;48.700;9.210;2024-01-30T06:38:23;2.50;63.30
32139;DHT22;18644;48.700;9.210;2024-01-30T06:40:52;2.50;63.20
32139;DHT22;18644;48.700;9.210;2024-01-30T06:43:18;2.50;63.30
32139;DHT22;18644;48.700;9.210;2024-01-30T06:45:45;2.40;64.00
32139;DHT22;18644;48.700;9.210;2024-01-30T06:48:12;2.40;63.30
32139;DHT22;18644;48.700;9.210;2024-01-30T06:50:39;2.40;63.40
32139;DHT22;18644;48.700;9.210;2024-01-30T06:53:07;2.40;63.40
32139;DHT22;18644;48.700;9.210;2024-01-30T06:55:34;2.40;63.50
32139;DHT22;18644;48.700;9.210;2024-01-30T06:58:02;2.40;63.50
32139;DHT22;18644;48.700;9.210;2024-01-30T07:00:29;2.40;63.40
32139;DHT22;18644;48.700;9.210;2024-01-30T07:02:56;2.40;63.40
32139;DHT22;18644;48.700;9.210;2024-01-30T07:05:23;2.40;63.40
32139;DHT22;18644;48.700;9.210;2024-01-30T07:07:50;2.40;63.40
32139;DHT22;18644;48.700;9.210;2024-01-30T07:10:17;2.40;63.50
32139;DHT22;18644;48.700;9.210;2024-01-30T07:12:44;2.40;63.60
32139;DHT22;18644;48.700;9.210;2024-01-30T07:15:13;2.40;63.60
32139;DHT22;18644;48.700;9.210;2024-01-30T07:17:42;2.40;63.70
32139;DHT22;18644;48.700;9.210;2024-01-30T07:20:09;2.40;63.80
32139;DHT22;18644;48.700;9.210;2024-01-30T07:22:36;2.50;63.90
32139;DHT22;18644;48.700;9.210;2024-01-30T07:25:04;2.50;63.90
32139;DHT22;18644;48.700;9.210;2024-01-30T07:27:31;2.50;63.90
32139;DHT22;18644;48.700;9.210;2024-01-30T07:29:58;2.50;64.00
32139;DHT22;18644;48.700;9.210;2024-01-30T07:32:27;2.50;64.10
32139;DHT22;18644;48.700;9.210;2024-01-30T07:34:54;2.50;64.20
32139;DHT22;18644;48.700;9.210;2024-01-30T07:37:21;2.50;64.30
32139;DHT22;18644;48.700;9.210;2024-01-30T07:39:47;2.60;64.70
32139;DHT22;18644;48.700;9.210;2024-01-30T07:42:14;2.60;64.50
32139;DHT22;18644;48.700;9.210;2024-01-30T07:44:43;2.70;64.70
32139;DHT22;18644;48.700;9.210;2024-01-30T07:47:11;2.70;64.80
32139;DHT22;18644;48.700;9.210;2024-01-30T07:49:41;2.70;64.90
32139;DHT22;18644;48.700;9.210;2024-01-30T07:52:08;2.80;65.00
32139;DHT22;18644;48.700;9.210;2024-01-30T07:54:35;2.80;65.10
32139;DHT22;18644;48.700;9.210;2024-01-30T07:57:04;2.90;65.30
32139;DHT22;18644;48.700;9.210;2024-01-30T07:59:31;2.90;65.40
32139;DHT22;18644;48.700;9.210;2024-01-30T08:01:58;3.00;65.50
32139;DHT22;18644;48.700;9.210;2024-01-30T08:04:25;3.00;65.60
32139;DHT22;18644;48.700;9.210;2024-01-30T08:06:53;3.20;65.70
32139;DHT22;18644;48.700;9.210;2024-01-30T08:09:20;3.20;65.80
32139;DHT22;18644;48.700;9.210;2024-01-30T08:11:47;3.30;65.80
32139;DHT22;18644;48.700;9.210;2024-01-30T08:14:14;3.40;66.00
32139;DHT22;18644;48.700;9.210;2024-01-30T08:16:41;3.40;66.00
32139;DHT22;18644;48.700;9.210;2024-01-30T08:19:08;3.50;66.10
32139;DHT22;18644;48.700;9.210;2024-01-30T08:21:35;3.60;66.20
32139;DHT22;18644;48.700;9.210;2024-01-30T08:24:05;3.70;66.20
32139;DHT22;18644;48.700;9.210;2024-01-30T08:26:33;3.80;66.20
32139;DHT22;18644;48.700;9.210;2024-01-30T08:29:01;3.90;66.20
32139;DHT22;18644;48.700;9.210;2024-01-30T08:31:28;3.90;66.10
32139;DHT22;18644;48.700;9.210;2024-01-30T08:33:54;4.10;66.40
32139;DHT22;18644;48.700;9.210;2024-01-30T08:36:22;4.20;66.70
32139;DHT22;18644;48.700;9.210;2024-01-30T08:38:49;4.20;66.90
32139;DHT22;18644;48.700;9.210;2024-01-30T08:41:17;4.40;67.10
32139;DHT22;18644;48.700;9.210;2024-01-30T08:43:44;4.60;67.10
32139;DHT22;18644;48.700;9.210;2024-01-30T08:46:12;4.70;66.90
32139;DHT22;18644;48.700;9.210;2024-01-30T08:48:38;4.80;66.80
32139;DHT22;18644;48.700;9.210;2024-01-30T08:51:05;4.90;66.80
32139;DHT22;18644;48.700;9.210;2024-01-30T08:53:34;5.00;67.50
32139;DHT22;18644;48.700;9.210;2024-01-30T08:56:02;5.20;66.80
32139;DHT22;18644;48.700;9.210;2024-01-30T08:58:30;5.30;66.80
32139;DHT22;18644;48.700;9.210;2024-01-30T09:00:58;5.40;66.80
32139;DHT22;18644;48.700;9.210;2024-01-30T09:03:25;5.60;66.80
32139;DHT22;18644;48.700;9.210;2024-01-30T09:05:53;5.70;66.70
32139;DHT22;18644;48.700;9.210;2024-01-30T09:08:19;5.80;66.70
32139;DHT22;18644;48.700;9.210;2024-01-30T09:10:46;5.90;66.60
32139;DHT22;18644;48.700;9.210;2024-01-30T09:13:13;6.00;66.50
32139;DHT22;18644;48.700;9.210;2024-01-30T09:15:42;6.20;66.50
32139;DHT22;18644;48.700;9.210;2024-01-30T09:18:09;6.30;66.30
32139;DHT22;18644;48.700;9.210;2024-01-30T09:20:36;6.40;66.10
32139;DHT22;18644;48.700;9.210;2024-01-30T09:23:03;6.50;65.90
32139;DHT22;18644;48.700;9.210;2024-01-30T09:25:30;6.60;65.50
32139;DHT22;18644;48.700;9.210;2024-01-30T09:27:57;6.70;65.20
32139;DHT22;18644;48.700;9.210;2024-01-30T09:30:24;6.80;64.90
32139;DHT22;18644;48.700;9.210;2024-01-30T09:32:52;6.80;64.70
32139;DHT22;18644;48.700;9.210;2024-01-30T09:35:19;6.90;64.60
32139;DHT22;18644;48.700;9.210;2024-01-30T09:37:46;7.00;64.70
32139;DHT22;18644;48.700;9.210;2024-01-30T09:40:13;7.10;64.70
32139;DHT22;18644;48.700;9.210;2024-01-30T09:42:47;7.20;64.80
32139;DHT22;18644;48.700;9.210;2024-01-30T09:45:17;7.30;64.80
32139;DHT22;18644;48.700;9.210;2024-01-30T09:47:45;7.40;64.50
32139;DHT22;18644;48.700;9.210;2024-01-30T09:50:15;7.50;64.90
32139;DHT22;18644;48.700;9.210;2024-01-30T09:52:43;7.60;64.40
32139;DHT22;18644;48.700;9.210;2024-01-30T09:55:11;7.70;64.10
32139;DHT22;18644;48.700;9.210;2024-01-30T09:57:38;7.80;64.30
32139;DHT22;18644;48.700;9.210;2024-01-30T10:00:06;7.90;64.30
32139;DHT22;18644;48.700;9.210;2024-01-30T10:02:34;8.00;64.40
32139;DHT22;18644;48.700;9.210;2024-01-30T10:05:01;8.10;64.30
32139;DHT22;18644;48.700;9.210;2024-01-30T10:07:29;8.20;63.90
32139;DHT22;18644;48.700;9.210;2024-01-30T10:09:56;8.40;63.90
32139;DHT22;18644;48.700;9.210;2024-01-30T10:12:26;8.50;63.90
32139;DHT22;18644;48.700;9.210;2024-01-30T10:14:53;8.70;63.60
32139;DHT22;18644;48.700;9.210;2024-01-30T10:17:20;8.90;63.50
32139;DHT22;18644;48.700;9.210;2024-01-30T10:19:47;9.10;63.40
32139;DHT22;18644;48.700;9.210;2024-01-30T10:22:14;9.30;63.30
32139;DHT22;18644;48.700;9.210;2024-01-30T10:24:43;9.40;62.90
32139;DHT22;18644;48.700;9.210;2024-01-30T10:27:11;9.50;62.40
32139;DHT22;18644;48.700;9.210;2024-01-30T10:29:38;9.70;61.90
32139;DHT22;18644;48.700;9.210;2024-01-30T10:32:05;9.80;61.60
32139;DHT22;18644;48.700;9.210;2024-01-30T10:34:32;9.90;61.30
32139;DHT22;18644;48.700;9.210;2024-01-30T10:37:09;10.00;61.20
32139;DHT22;18644;48.700;9.210;2024-01-30T10:39:38;10.00;60.70
32139;DHT22;18644;48.700;9.210;2024-01-30T10:42:11;10.10;60.50
32139;DHT22;18644;48.700;9.210;2024-01-30T10:44:45;10.20;60.30
32139;DHT22;18644;48.700;9.210;2024-01-30T10:47:18;10.20;60.20
32139;DHT22;18644;48.700;9.210;2024-01-30T10:49:49;10.30;60.30
32139;DHT22;18644;48.700;9.210;2024-01-30T10:52:16;10.40;60.10
32139;DHT22;18644;48.700;9.210;2024-01-30T10:54:44;10.50;59.90
32139;DHT22;18644;48.700;9.210;2024-01-30T10:57:13;10.50;59.90
32139;DHT22;18644;48.700;9.210;2024-01-30T10:59:43;10.60;60.00
32139;DHT22;18644;48.700;9.210;2024-01-30T11:02:11;10.70;59.90
32139;DHT22;18644;48.700;9.210;2024-01-30T11:04:38;10.80;59.80
32139;DHT22;18644;48.700;9.210;2024-01-30T11:07:14;10.80;59.70
32139;DHT22;18644;48.700;9.210;2024-01-30T11:09:48;10.90;59.70
32139;DHT22;18644;48.700;9.210;2024-01-30T11:12:22;11.00;59.90
32139;DHT22;18644;48.700;9.210;2024-01-30T11:14:50;11.10;60.00
32139;DHT22;18644;48.700;9.210;2024-01-30T11:17:28;11.20;59.90
32139;DHT22;18644;48.700;9.210;2024-01-30T11:19:59;11.30;59.50
32139;DHT22;18644;48.700;9.210;2024-01-30T11:22:26;11.40;59.60
32139;DHT22;18644;48.700;9.210;2024-01-30T11:24:53;11.50;59.00
32139;DHT22;18644;48.700;9.210;2024-01-30T11:27:23;11.50;58.80
32139;DHT22;18644;48.700;9.210;2024-01-30T11:29:50;11.60;58.70
32139;DHT22;18644;48.700;9.210;2024-01-30T11:32:22;11.60;58.50
32139;DHT22;18644;48.700;9.210;2024-01-30T11:34:50;11.70;58.40
32139;DHT22;18644;48.700;9.210;2024-01-30T11:37:20;11.80;58.30
32139;DHT22;18644;48.700;9.210;2024-01-30T11:39:48;11.90;58.30
32139;DHT22;18644;48.700;9.210;2024-01-30T11:42:15;11.90;58.40
32139;DHT22;18644;48.700;9.210;2024-01-30T11:44:47;12.00;58.60
32139;DHT22;18644;48.700;9.210;2024-01-30T11:47:15;12.10;58.80
32139;DHT22;18644;48.700;9.210;2024-01-30T11:49:43;12.20;58.90
32139;DHT22;18644;48.700;9.210;2024-01-30T11:52:10;12.20;58.90
32139;DHT22;18644;48.700;9.210;2024-01-30T11:54:39;12.30;58.90
32139;DHT22;18644;48.700;9.210;2024-01-30T11:57:06;12.40;58.90
32139;DHT22;18644;48.700;9.210;2024-01-30T11:59:33;12.50;58.80
32139;DHT22;18644;48.700;9.210;2024-01-30T12:02:01;12.50;58.50
32139;DHT22;18644;48.700;9.210;2024-01-30T12:04:28;12.60;58.30
32139;DHT22;18644;48.700;9.210;2024-01-30T12:06:56;12.70;58.20
32139;DHT22;18644;48.700;9.210;2024-01-30T12:09:23;12.70;57.90
32139;DHT22;18644;48.700;9.210;2024-01-30T12:11:50;12.80;57.80
32139;DHT22;18644;48.700;9.210;2024-01-30T12:14:17;12.90;58.00
32139;DHT22;18644;48.700;9.210;2024-01-30T12:16:48;12.90;58.00
32139;DHT22;18644;48.700;9.210;2024-01-30T12:19:22;13.00;57.90
32139;DHT22;18644;48.700;9.210;2024-01-30T12:21:54;13.00;57.70
32139;DHT22;18644;48.700;9.210;2024-01-30T12:24:22;13.10;57.70
32139;DHT22;18644;48.700;9.210;2024-01-30T12:26:49;13.10;57.50
32139;DHT22;18644;48.700;9.210;2024-01-30T12:29:17;13.20;57.40
32139;DHT22;18644;48.700;9.210;2024-01-30T12:31:44;13.30;57.50
32139;DHT22;18644;48.700;9.210;2024-01-30T12:34:14;13.30;57.80
32139;DHT22;18644;48.700;9.210;2024-01-30T12:36:43;13.40;58.00
32139;DHT22;18644;48.700;9.210;2024-01-30T12:39:11;13.50;58.00
32139;DHT22;18644;48.700;9.210;2024-01-30T12:41:40;13.60;57.80
32139;DHT22;18644;48.700;9.210;2024-01-30T12:44:07;13.70;57.70
32139;DHT22;18644;48.700;9.210;2024-01-30T12:46:34;13.80;57.60
32139;DHT22;18644;48.700;9.210;2024-01-30T12:49:01;13.80;57.50
32139;DHT22;18644;48.700;9.210;2024-01-30T12:51:28;14.00;57.60
32139;DHT22;18644;48.700;9.210;2024-01-30T12:53:57;14.10;57.70
32139;DHT22;18644;48.700;9.210;2024-01-30T12:56:23;14.20;57.80
32139;DHT22;18644;48.700;9.210;2024-01-30T12:58:50;14.30;58.00
32139;DHT22;18644;48.700;9.210;2024-01-30T13:01:17;14.50;58.00
32139;DHT22;18644;48.700;9.210;2024-01-30T13:03:44;14.60;57.90
32139;DHT22;18644;48.700;9.210;2024-01-30T13:06:11;14.70;57.90
32139;DHT22;18644;48.700;9.210;2024-01-30T13:08:38;14.90;57.80
32139;DHT22;18644;48.700;9.210;2024-01-30T13:11:06;15.00;57.50
32139;DHT22;18644;48.700;9.210;2024-01-30T13:13:33;15.20;57.40
32139;DHT22;18644;48.700;9.210;2024-01-30T13:16:01;15.30;57.10
32139;DHT22;18644;48.700;9.210;2024-01-30T13:18:28;15.40;56.90
32139;DHT22;18644;48.700;9.210;2024-01-30T13:20:55;15.60;56.70
32139;DHT22;18644;48.700;9.210;2024-01-30T13:23:22;15.70;56.50
32139;DHT22;18644;48.700;9.210;2024-01-30T13:25:48;15.80;56.40
32139;DHT22;18644;48.700;9.210;2024-01-30T13:28:17;15.90;56.30
32139;DHT22;18644;48.700;9.210;2024-01-30T13:30:44;16.00;56.00
32139;DHT22;18644;48.700;9.210;2024-01-30T13:33:11;16.10;55.90
32139;DHT22;18644;48.700;9.210;2024-01-30T13:35:38;16.20;55.40
32139;DHT22;18644;48.700;9.210;2024-01-30T13:38:04;16.30;54.70
32139;DHT22;18644;48.700;9.210;2024-01-30T13:40:31;16.40;54.40
32139;DHT22;18644;48.700;9.210;2024-01-30T13:42:58;16.40;53.80
32139;DHT22;18644;48.700;9.210;2024-01-30T13:45:27;16.50;53.50
32139;DHT22;18644;48.700;9.210;2024-01-30T13:47:54;16.50;53.20
32139;DHT22;18644;48.700;9.210;2024-01-30T13:50:21;16.60;53.10
32139;DHT22;18644;48.700;9.210;2024-01-30T13:52:47;16.60;52.90
32139;DHT22;18644;48.700;9.210;2024-01-30T13:55:14;16.70;52.70
32139;DHT22;18644;48.700;9.210;2024-01-30T13:57:42;16.70;52.70
32139;DHT22;18644;48.700;9.210;2024-01-30T14:00:10;16.80;52.80
32139;DHT22;18644;48.700;9.210;2024-01-30T14:02:42;16.90;52.70
32139;DHT22;18644;48.700;9.210;2024-01-30T14:05:09;16.90;52.30
32139;DHT22;18644;48.700;9.210;2024-01-30T14:07:37;17.00;52.70
32139;DHT22;18644;48.700;9.210;2024-01-30T14:10:06;17.00;52.40
32139;DHT22;18644;48.700;9.210;2024-01-30T14:12:33;17.00;52.20
32139;DHT22;18644;48.700;9.210;2024-01-30T14:15:00;17.10;51.90
32139;DHT22;18644;48.700;9.210;2024-01-30T14:17:27;17.00;51.70
32139;DHT22;18644;48.700;9.210;2024-01-30T14:19:56;17.10;51.80
32139;DHT22;18644;48.700;9.210;2024-01-30T14:22:23;17.00;52.10
32139;DHT22;18644;48.700;9.210;2024-01-30T14:24:49;17.00;52.30
32139;DHT22;18644;48.700;9.210;2024-01-30T14:27:16;17.00;52.40
32139;DHT22;18644;48.700;9.210;2024-01-30T14:29:44;16.90;52.40
32139;DHT22;18644;48.700;9.210;2024-01-30T14:32:11;16.90;52.50
32139;DHT22;18644;48.700;9.210;2024-01-30T14:34:37;16.90;52.50
32139;DHT22;18644;48.700;9.210;2024-01-30T14:37:06;16.90;52.50
32139;DHT22;18644;48.700;9.210;2024-01-30T14:39:33;16.90;52.40
32139;DHT22;18644;48.700;9.210;2024-01-30T14:42:02;16.90;52.20
32139;DHT22;18644;48.700;9.210;2024-01-30T14:44:30;16.80;51.90
32139;DHT22;18644;48.700;9.210;2024-01-30T14:46:57;16.80;52.40
32139;DHT22;18644;48.700;9.210;2024-01-30T14:49:24;16.80;51.90
32139;DHT22;18644;48.700;9.210;2024-01-30T14:51:50;16.70;51.80
32139;DHT22;18644;48.700;9.210;2024-01-30T14:54:19;16.60;51.80
32139;DHT22;18644;48.700;9.210;2024-01-30T14:56:46;16.60;51.80
32139;DHT22;18644;48.700;9.210;2024-01-30T14:59:13;16.50;51.80
32139;DHT22;18644;48.700;9.210;2024-01-30T15:01:40;16.40;51.90
32139;DHT22;18644;48.700;9.210;2024-01-30T15:04:07;16.30;52.00
32139;DHT22;18644;48.700;9.210;2024-01-30T15:06:34;16.30;52.10
32139;DHT22;18644;48.700;9.210;2024-01-30T15:09:01;16.20;52.10
32139;DHT22;18644;48.700;9.210;2024-01-30T15:11:29;16.10;52.10
32139;DHT22;18644;48.700;9.210;2024-01-30T15:13:58;16.00;52.00
32139;DHT22;18644;48.700;9.210;2024-01-30T15:16:25;16.00;52.00
32139;DHT22;18644;48.700;9.210;2024-01-30T15:18:53;15.80;52.00
32139;DHT22;18644;48.700;9.210;2024-01-30T15:21:20;15.80;52.00
32139;DHT22;18644;48.700;9.210;2024-01-30T15:23:48;15.70;52.00
32139;DHT22;18644;48.700;9.210;2024-01-30T15:26:15;15.60;51.90
32139;DHT22;18644;48.700;9.210;2024-01-30T15:28:43;15.50;52.00
32139;DHT22;18644;48.700;9.210;2024-01-30T15:31:10;15.50;51.90
32139;DHT22;18644;48.700;9.210;2024-01-30T15:33:37;15.40;52.00
32139;DHT22;18644;48.700;9.210;2024-01-30T15:36:05;15.30;52.10
32139;DHT22;18644;48.700;9.210;2024-01-30T15:38:32;15.20;52.20
32139;DHT22;18644;48.700;9.210;2024-01-30T15:40:59;15.10;52.40